thescarboroughnews.co.uk alexa rank chart, thescarboroughnews.co.uk alexa rank daily changes

thescarboroughnews.co.uk alexa rank chart, thescarboroughnews.co.uk alexa rank daily changes

thescarboroughnews.co.uk
Actual rank:
491 070

RANK HISTORY

Date Rank Diff
2018/07/17 491 070 +108 423
2018/07/15 382 647 +193 955
2018/07/10 188 692 -171 503
2018/07/09 360 195 +38 578
2018/07/08 321 617 -444 181
2018/07/07 765 798 +242 542
2018/07/06 523 256 -4 845
2018/07/05 528 101 -236 243
2018/07/04 764 344 +555 090
2018/07/03 209 254 -73 144
2018/07/02 282 398 +65 856
2018/07/01 216 542 -94 564
2018/06/30 311 106 -226 442
2018/06/29 537 548 +144 667
2018/06/28 392 881 +82 260
2018/06/26 310 621 -262 577
2018/06/25 573 198 +139 346
2018/06/24 433 852 -150 886
2018/06/23 584 738 +226 308
2018/06/22 358 430 -19 280
2018/06/20 377 710 -97 382
2018/06/19 475 092 -113 265
2018/06/18 588 357 +110 782
2018/06/17 477 575 -270 642
2018/06/16 748 217 -25 572
2018/06/15 773 789 +432 900
2018/06/14 340 889 -450 177
2018/06/13 791 066 +481 850
2018/06/12 309 216 -29 194
2018/06/11 338 410 -3 641
2018/06/10 342 051 -135 470
2018/06/09 477 521 +107 925
2018/06/08 369 596 -55 110
2018/06/07 424 706 +199 373
2018/06/06 225 333 -45 332
2018/06/05 270 665 -52 496
2018/06/04 323 161 -273 803
2018/06/03 596 964 -150 948
2018/06/02 747 912 +396 613
2018/06/01 351 299 -148 118
2018/05/31 499 417 -74 247
2018/05/28 573 664 +253 893
2018/05/27 319 771 -261 552
2018/05/26 581 323 -191 852
2018/05/25 773 175 +173 491
2018/05/24 599 684 +57 723
2018/05/23 541 961 -171 200
2018/05/20 713 161 +223 698
2018/05/19 489 463

WIDGET FOR YOUR SITE

DOMAINS WITH THE NEAREST RANK

Domain Rank
sonokinetic.net 491 065
gotogasdocs.co.uk 491 066
gretastravels.com 491 067
latticetraining.com 491 068
textileartist.org 491 069
thescarboroughnews.co.uk 491 070
44when.com 491 071
amateurguysonvideo.blogspot.com 491 072
klacht.nl 491 073
t1shopper.com 491 074
covertvideopress.com 491 075

DOMAINS WITH THE NEAREST RANK BY TLD .co.uk

Domain Rank
blackwasp.co.uk 490 269
carolinesheldon.co.uk 490 360
docbrown.co.uk 490 802
redfrogstore.co.uk 490 870
gotogasdocs.co.uk 491 066
thescarboroughnews.co.uk 491 070
bikeshuttle.co.uk 491 424
boswells.co.uk 491 430
breathalyserdirect.co.uk 491 433
cameonightclub.co.uk 491 441
cliftonrubber.co.uk 491 453